sensor_id;sensor_type;location;lat;lon;timestamp;temperature;humidity
13998;DHT22;7074;51.508;7.018;2024-02-26T00:01:02;8.00;99.90
13998;DHT22;7074;51.508;7.018;2024-02-26T00:03:29;7.90;99.90
13998;DHT22;7074;51.508;7.018;2024-02-26T00:06:01;8.00;99.90
13998;DHT22;7074;51.508;7.018;2024-02-26T00:08:29;7.90;99.90
13998;DHT22;7074;51.508;7.018;2024-02-26T00:10:56;7.90;99.90
13998;DHT22;7074;51.508;7.018;2024-02-26T00:13:23;7.90;99.90
13998;DHT22;7074;51.508;7.018;2024-02-26T00:15:50;7.90;99.90
13998;DHT22;7074;51.508;7.018;2024-02-26T00:18:17;7.90;99.90
13998;DHT22;7074;51.508;7.018;2024-02-26T00:20:44;7.90;99.90
13998;DHT22;7074;51.508;7.018;2024-02-26T00:23:14;7.90;99.90
13998;DHT22;7074;51.508;7.018;2024-02-26T00:25:42;7.80;99.90
13998;DHT22;7074;51.508;7.018;2024-02-26T00:28:10;7.80;99.90
13998;DHT22;7074;51.508;7.018;2024-02-26T00:30:39;7.80;99.90
13998;DHT22;7074;51.508;7.018;2024-02-26T00:33:06;7.80;99.90
13998;DHT22;7074;51.508;7.018;2024-02-26T00:35:33;7.80;99.90
13998;DHT22;7074;51.508;7.018;2024-02-26T00:38:00;7.80;99.90
13998;DHT22;7074;51.508;7.018;2024-02-26T00:40:30;7.80;99.90
13998;DHT22;7074;51.508;7.018;2024-02-26T00:42:57;7.70;99.90
13998;DHT22;7074;51.508;7.018;2024-02-26T00:45:24;7.70;99.90
13998;DHT22;7074;51.508;7.018;2024-02-26T00:47:52;7.70;99.90
13998;DHT22;7074;51.508;7.018;2024-02-26T00:50:19;7.80;99.90
13998;DHT22;7074;51.508;7.018;2024-02-26T00:52:47;7.70;99.90
13998;DHT22;7074;51.508;7.018;2024-02-26T00:55:14;7.70;99.90
13998;DHT22;7074;51.508;7.018;2024-02-26T00:57:43;7.70;99.90
13998;DHT22;7074;51.508;7.018;2024-02-26T01:00:13;7.70;99.90
13998;DHT22;7074;51.508;7.018;2024-02-26T01:02:40;7.70;99.90
13998;DHT22;7074;51.508;7.018;2024-02-26T01:05:08;7.70;99.90
13998;DHT22;7074;51.508;7.018;2024-02-26T01:07:36;7.80;99.90
13998;DHT22;7074;51.508;7.018;2024-02-26T01:10:04;7.90;99.90
13998;DHT22;7074;51.508;7.018;2024-02-26T01:12:31;7.90;99.90
13998;DHT22;7074;51.508;7.018;2024-02-26T01:15:00;7.90;99.90
13998;DHT22;7074;51.508;7.018;2024-02-26T01:17:28;7.90;99.90
13998;DHT22;7074;51.508;7.018;2024-02-26T01:19:56;7.80;99.90
13998;DHT22;7074;51.508;7.018;2024-02-26T01:22:23;7.80;99.90
13998;DHT22;7074;51.508;7.018;2024-02-26T01:24:51;7.80;99.90
13998;DHT22;7074;51.508;7.018;2024-02-26T01:27:18;7.80;99.90
13998;DHT22;7074;51.508;7.018;2024-02-26T01:29:45;7.80;99.90
13998;DHT22;7074;51.508;7.018;2024-02-26T01:32:14;7.80;99.90
13998;DHT22;7074;51.508;7.018;2024-02-26T01:34:42;7.70;99.90
13998;DHT22;7074;51.508;7.018;2024-02-26T01:37:09;7.70;99.90
13998;DHT22;7074;51.508;7.018;2024-02-26T01:39:36;7.70;99.90
13998;DHT22;7074;51.508;7.018;2024-02-26T01:42:04;7.70;99.90
13998;DHT22;7074;51.508;7.018;2024-02-26T01:44:31;7.70;99.90
13998;DHT22;7074;51.508;7.018;2024-02-26T01:46:58;7.80;99.90
13998;DHT22;7074;51.508;7.018;2024-02-26T01:49:29;7.80;99.90
13998;DHT22;7074;51.508;7.018;2024-02-26T01:51:57;7.80;99.90
13998;DHT22;7074;51.508;7.018;2024-02-26T01:54:24;7.80;99.90
13998;DHT22;7074;51.508;7.018;2024-02-26T01:56:52;7.80;99.90
13998;DHT22;7074;51.508;7.018;2024-02-26T01:59:29;7.80;99.90
13998;DHT22;7074;51.508;7.018;2024-02-26T02:01:59;7.80;99.90
13998;DHT22;7074;51.508;7.018;2024-02-26T02:04:29;7.80;99.90
13998;DHT22;7074;51.508;7.018;2024-02-26T02:06:57;7.80;99.90
13998;DHT22;7074;51.508;7.018;2024-02-26T02:09:25;7.80;99.90
13998;DHT22;7074;51.508;7.018;2024-02-26T02:11:53;7.80;99.90
13998;DHT22;7074;51.508;7.018;2024-02-26T02:14:21;7.80;99.90
13998;DHT22;7074;51.508;7.018;2024-02-26T02:16:48;7.80;99.90
13998;DHT22;7074;51.508;7.018;2024-02-26T02:19:15;7.70;99.90
13998;DHT22;7074;51.508;7.018;2024-02-26T02:21:44;7.80;99.90
13998;DHT22;7074;51.508;7.018;2024-02-26T02:24:12;7.80;99.90
13998;DHT22;7074;51.508;7.018;2024-02-26T02:26:39;7.80;99.90
13998;DHT22;7074;51.508;7.018;2024-02-26T02:29:06;7.70;99.90
13998;DHT22;7074;51.508;7.018;2024-02-26T02:31:35;7.70;99.90
13998;DHT22;7074;51.508;7.018;2024-02-26T02:34:02;7.70;99.90
13998;DHT22;7074;51.508;7.018;2024-02-26T02:36:30;7.80;99.90
13998;DHT22;7074;51.508;7.018;2024-02-26T02:38:58;7.80;99.90
13998;DHT22;7074;51.508;7.018;2024-02-26T02:41:26;7.80;99.90
13998;DHT22;7074;51.508;7.018;2024-02-26T02:43:55;7.90;99.90
13998;DHT22;7074;51.508;7.018;2024-02-26T02:46:25;7.90;99.90
13998;DHT22;7074;51.508;7.018;2024-02-26T02:48:53;7.90;99.90
13998;DHT22;7074;51.508;7.018;2024-02-26T02:51:20;7.90;99.90
13998;DHT22;7074;51.508;7.018;2024-02-26T02:53:49;7.90;99.90
13998;DHT22;7074;51.508;7.018;2024-02-26T02:56:18;8.00;99.90
13998;DHT22;7074;51.508;7.018;2024-02-26T02:58:45;8.00;99.90
13998;DHT22;7074;51.508;7.018;2024-02-26T03:01:13;8.00;99.90
13998;DHT22;7074;51.508;7.018;2024-02-26T03:03:40;8.00;99.90
13998;DHT22;7074;51.508;7.018;2024-02-26T03:06:08;8.00;99.90
13998;DHT22;7074;51.508;7.018;2024-02-26T03:08:35;8.00;99.90
13998;DHT22;7074;51.508;7.018;2024-02-26T03:11:05;8.00;99.90
13998;DHT22;7074;51.508;7.018;2024-02-26T03:13:34;8.00;99.90
13998;DHT22;7074;51.508;7.018;2024-02-26T03:16:04;7.90;99.90
13998;DHT22;7074;51.508;7.018;2024-02-26T03:18:32;7.90;99.90
13998;DHT22;7074;51.508;7.018;2024-02-26T03:20:59;7.90;99.90
13998;DHT22;7074;51.508;7.018;2024-02-26T03:29:13;7.90;99.90
13998;DHT22;7074;51.508;7.018;2024-02-26T03:32:03;7.80;99.90
13998;DHT22;7074;51.508;7.018;2024-02-26T03:34:48;7.80;99.90
13998;DHT22;7074;51.508;7.018;2024-02-26T03:37:20;7.80;99.90
13998;DHT22;7074;51.508;7.018;2024-02-26T03:39:47;7.80;99.90
13998;DHT22;7074;51.508;7.018;2024-02-26T03:42:46;7.80;99.90
13998;DHT22;7074;51.508;7.018;2024-02-26T03:45:20;7.80;99.90
13998;DHT22;7074;51.508;7.018;2024-02-26T03:47:53;7.80;99.90
13998;DHT22;7074;51.508;7.018;2024-02-26T03:50:21;7.70;99.90
13998;DHT22;7074;51.508;7.018;2024-02-26T03:52:49;7.70;99.90
13998;DHT22;7074;51.508;7.018;2024-02-26T03:55:16;7.70;99.90
13998;DHT22;7074;51.508;7.018;2024-02-26T03:57:50;7.70;99.90
13998;DHT22;7074;51.508;7.018;2024-02-26T04:00:22;7.70;99.90
13998;DHT22;7074;51.508;7.018;2024-02-26T04:02:55;7.70;99.90
13998;DHT22;7074;51.508;7.018;2024-02-26T04:05:22;7.70;99.90
13998;DHT22;7074;51.508;7.018;2024-02-26T04:07:55;7.70;99.90
13998;DHT22;7074;51.508;7.018;2024-02-26T04:10:23;7.70;99.90
13998;DHT22;7074;51.508;7.018;2024-02-26T04:12:51;7.70;99.90
13998;DHT22;7074;51.508;7.018;2024-02-26T05:07:19;7.20;99.90
13998;DHT22;7074;51.508;7.018;2024-02-26T05:23:20;7.10;99.90
13998;DHT22;7074;51.508;7.018;2024-02-26T06:27:19;7.00;99.90
13998;DHT22;7074;51.508;7.018;2024-02-26T06:43:22;7.10;99.90
13998;DHT22;7074;51.508;7.018;2024-02-26T06:45:57;7.10;99.90
13998;DHT22;7074;51.508;7.018;2024-02-26T06:48:41;7.10;99.90
13998;DHT22;7074;51.508;7.018;2024-02-26T06:51:28;7.20;99.90
13998;DHT22;7074;51.508;7.018;2024-02-26T06:54:18;7.10;99.90
13998;DHT22;7074;51.508;7.018;2024-02-26T07:00:12;7.20;99.90
13998;DHT22;7074;51.508;7.018;2024-02-26T07:02:41;7.20;99.90
13998;DHT22;7074;51.508;7.018;2024-02-26T07:05:09;7.10;99.90
13998;DHT22;7074;51.508;7.018;2024-02-26T07:07:36;7.10;99.90
13998;DHT22;7074;51.508;7.018;2024-02-26T07:10:08;7.20;99.90
13998;DHT22;7074;51.508;7.018;2024-02-26T07:12:35;7.20;99.90
13998;DHT22;7074;51.508;7.018;2024-02-26T07:15:04;7.10;99.90
13998;DHT22;7074;51.508;7.018;2024-02-26T07:17:35;7.10;99.90
13998;DHT22;7074;51.508;7.018;2024-02-26T07:20:13;7.10;99.90
13998;DHT22;7074;51.508;7.018;2024-02-26T07:23:06;7.20;99.90
13998;DHT22;7074;51.508;7.018;2024-02-26T07:25:34;7.10;99.90
13998;DHT22;7074;51.508;7.018;2024-02-26T07:28:39;7.10;99.90
13998;DHT22;7074;51.508;7.018;2024-02-26T07:31:07;7.20;99.90
13998;DHT22;7074;51.508;7.018;2024-02-26T07:33:36;7.20;99.90
13998;DHT22;7074;51.508;7.018;2024-02-26T07:36:03;7.20;99.90
13998;DHT22;7074;51.508;7.018;2024-02-26T07:38:34;7.30;99.90
13998;DHT22;7074;51.508;7.018;2024-02-26T07:41:04;7.30;99.90
13998;DHT22;7074;51.508;7.018;2024-02-26T07:43:32;7.30;99.90
13998;DHT22;7074;51.508;7.018;2024-02-26T07:46:05;7.40;99.90
13998;DHT22;7074;51.508;7.018;2024-02-26T07:48:35;7.40;99.90
13998;DHT22;7074;51.508;7.018;2024-02-26T07:51:05;7.40;99.90
13998;DHT22;7074;51.508;7.018;2024-02-26T07:53:59;7.40;99.90
13998;DHT22;7074;51.508;7.018;2024-02-26T07:56:58;7.40;99.90
13998;DHT22;7074;51.508;7.018;2024-02-26T07:59:34;7.40;99.90
13998;DHT22;7074;51.508;7.018;2024-02-26T08:02:15;7.40;99.90
13998;DHT22;7074;51.508;7.018;2024-02-26T08:04:44;7.40;99.90
13998;DHT22;7074;51.508;7.018;2024-02-26T08:07:17;7.40;99.90
13998;DHT22;7074;51.508;7.018;2024-02-26T08:09:51;7.30;99.90
13998;DHT22;7074;51.508;7.018;2024-02-26T08:12:19;7.30;99.90
13998;DHT22;7074;51.508;7.018;2024-02-26T08:14:47;7.30;99.90
13998;DHT22;7074;51.508;7.018;2024-02-26T08:17:59;7.30;99.90
13998;DHT22;7074;51.508;7.018;2024-02-26T08:20:43;7.30;99.90
13998;DHT22;7074;51.508;7.018;2024-02-26T08:23:11;7.40;99.90
13998;DHT22;7074;51.508;7.018;2024-02-26T08:25:47;7.30;99.90
13998;DHT22;7074;51.508;7.018;2024-02-26T08:28:38;7.40;99.90
13998;DHT22;7074;51.508;7.018;2024-02-26T08:31:05;7.40;99.90
13998;DHT22;7074;51.508;7.018;2024-02-26T08:33:36;7.40;99.90
13998;DHT22;7074;51.508;7.018;2024-02-26T08:36:06;7.40;99.90
13998;DHT22;7074;51.508;7.018;2024-02-26T08:58:55;7.40;99.90
13998;DHT22;7074;51.508;7.018;2024-02-26T09:02:23;7.50;99.90
13998;DHT22;7074;51.508;7.018;2024-02-26T09:34:01;7.20;99.90
13998;DHT22;7074;51.508;7.018;2024-02-26T09:37:22;7.40;99.90
13998;DHT22;7074;51.508;7.018;2024-02-26T10:07:44;7.50;99.90
13998;DHT22;7074;51.508;7.018;2024-02-26T10:11:33;7.50;99.90
13998;DHT22;7074;51.508;7.018;2024-02-26T11:02:27;8.30;99.90
13998;DHT22;7074;51.508;7.018;2024-02-26T11:10:22;8.40;99.90
13998;DHT22;7074;51.508;7.018;2024-02-26T11:13:54;8.50;99.90
13998;DHT22;7074;51.508;7.018;2024-02-26T11:16:31;8.60;99.90
13998;DHT22;7074;51.508;7.018;2024-02-26T11:31:13;8.50;99.90
13998;DHT22;7074;51.508;7.018;2024-02-26T11:34:44;8.50;99.90
13998;DHT22;7074;51.508;7.018;2024-02-26T11:41:10;8.40;99.90
13998;DHT22;7074;51.508;7.018;2024-02-26T11:51:09;8.70;99.90
13998;DHT22;7074;51.508;7.018;2024-02-26T11:54:03;8.70;99.90
13998;DHT22;7074;51.508;7.018;2024-02-26T11:57:17;8.70;99.90
13998;DHT22;7074;51.508;7.018;2024-02-26T12:01:04;8.90;99.90
13998;DHT22;7074;51.508;7.018;2024-02-26T12:06:34;8.90;99.90
13998;DHT22;7074;51.508;7.018;2024-02-26T12:33:52;9.00;99.90
13998;DHT22;7074;51.508;7.018;2024-02-26T12:37:22;9.00;99.90
13998;DHT22;7074;51.508;7.018;2024-02-26T12:40:00;8.80;99.90
13998;DHT22;7074;51.508;7.018;2024-02-26T12:42:33;8.90;99.90
13998;DHT22;7074;51.508;7.018;2024-02-26T12:45:18;9.10;99.90
13998;DHT22;7074;51.508;7.018;2024-02-26T12:48:21;9.10;99.90
13998;DHT22;7074;51.508;7.018;2024-02-26T12:56:22;8.80;99.90
13998;DHT22;7074;51.508;7.018;2024-02-26T12:58:51;9.00;99.90
13998;DHT22;7074;51.508;7.018;2024-02-26T13:01:27;8.90;99.90
13998;DHT22;7074;51.508;7.018;2024-02-26T13:03:55;9.00;99.90
13998;DHT22;7074;51.508;7.018;2024-02-26T13:06:25;9.00;99.90
13998;DHT22;7074;51.508;7.018;2024-02-26T13:09:13;8.90;99.90
13998;DHT22;7074;51.508;7.018;2024-02-26T13:11:42;8.90;99.90
13998;DHT22;7074;51.508;7.018;2024-02-26T13:14:21;9.00;99.90
13998;DHT22;7074;51.508;7.018;2024-02-26T13:16:55;8.90;99.90
13998;DHT22;7074;51.508;7.018;2024-02-26T13:19:22;9.00;99.90
13998;DHT22;7074;51.508;7.018;2024-02-26T13:21:51;9.00;99.90
13998;DHT22;7074;51.508;7.018;2024-02-26T13:24:20;9.00;99.90
13998;DHT22;7074;51.508;7.018;2024-02-26T13:26:54;9.10;99.90
13998;DHT22;7074;51.508;7.018;2024-02-26T13:29:21;9.10;99.90
13998;DHT22;7074;51.508;7.018;2024-02-26T13:31:54;9.10;99.90
13998;DHT22;7074;51.508;7.018;2024-02-26T13:34:23;9.10;99.90
13998;DHT22;7074;51.508;7.018;2024-02-26T13:36:52;9.20;99.90
13998;DHT22;7074;51.508;7.018;2024-02-26T13:39:27;9.20;99.90
13998;DHT22;7074;51.508;7.018;2024-02-26T13:42:00;9.30;99.90
13998;DHT22;7074;51.508;7.018;2024-02-26T13:44:27;9.30;99.90
13998;DHT22;7074;51.508;7.018;2024-02-26T13:46:55;9.30;99.90
13998;DHT22;7074;51.508;7.018;2024-02-26T13:49:23;9.10;99.90
13998;DHT22;7074;51.508;7.018;2024-02-26T13:51:50;9.00;99.90
13998;DHT22;7074;51.508;7.018;2024-02-26T13:54:18;9.10;99.90
13998;DHT22;7074;51.508;7.018;2024-02-26T13:56:54;9.10;99.90
13998;DHT22;7074;51.508;7.018;2024-02-26T13:59:26;9.20;99.90
13998;DHT22;7074;51.508;7.018;2024-02-26T14:01:53;9.20;99.90
13998;DHT22;7074;51.508;7.018;2024-02-26T14:04:23;9.20;99.90
13998;DHT22;7074;51.508;7.018;2024-02-26T14:06:51;9.30;99.90
13998;DHT22;7074;51.508;7.018;2024-02-26T14:09:20;9.20;99.90
13998;DHT22;7074;51.508;7.018;2024-02-26T14:11:48;9.20;99.90
13998;DHT22;7074;51.508;7.018;2024-02-26T14:14:17;9.10;99.90
13998;DHT22;7074;51.508;7.018;2024-02-26T14:16:47;9.20;99.90
13998;DHT22;7074;51.508;7.018;2024-02-26T14:19:15;9.20;99.90
13998;DHT22;7074;51.508;7.018;2024-02-26T14:21:42;9.20;99.90
13998;DHT22;7074;51.508;7.018;2024-02-26T14:24:10;9.10;99.90
13998;DHT22;7074;51.508;7.018;2024-02-26T14:26:37;9.20;99.90
13998;DHT22;7074;51.508;7.018;2024-02-26T14:29:05;9.20;99.90
13998;DHT22;7074;51.508;7.018;2024-02-26T14:31:32;9.30;99.90
13998;DHT22;7074;51.508;7.018;2024-02-26T14:34:01;9.30;99.90
13998;DHT22;7074;51.508;7.018;2024-02-26T14:36:31;9.30;99.90
13998;DHT22;7074;51.508;7.018;2024-02-26T14:38:59;9.40;99.90
13998;DHT22;7074;51.508;7.018;2024-02-26T14:41:26;9.40;99.90
13998;DHT22;7074;51.508;7.018;2024-02-26T14:43:55;9.30;99.90
13998;DHT22;7074;51.508;7.018;2024-02-26T14:46:24;9.40;99.90
13998;DHT22;7074;51.508;7.018;2024-02-26T14:48:54;9.50;99.90
13998;DHT22;7074;51.508;7.018;2024-02-26T14:51:28;9.40;99.90
13998;DHT22;7074;51.508;7.018;2024-02-26T14:53:57;9.30;99.90
13998;DHT22;7074;51.508;7.018;2024-02-26T14:56:33;9.20;99.90
13998;DHT22;7074;51.508;7.018;2024-02-26T14:59:03;9.20;99.90
13998;DHT22;7074;51.508;7.018;2024-02-26T15:01:34;9.30;99.90
13998;DHT22;7074;51.508;7.018;2024-02-26T15:04:07;9.30;99.90
13998;DHT22;7074;51.508;7.018;2024-02-26T15:06:40;9.30;99.90
13998;DHT22;7074;51.508;7.018;2024-02-26T15:09:08;9.30;99.90
13998;DHT22;7074;51.508;7.018;2024-02-26T15:11:38;9.20;99.90
13998;DHT22;7074;51.508;7.018;2024-02-26T15:14:05;9.20;99.90
13998;DHT22;7074;51.508;7.018;2024-02-26T15:16:32;9.30;99.90
13998;DHT22;7074;51.508;7.018;2024-02-26T15:19:00;9.10;99.90
13998;DHT22;7074;51.508;7.018;2024-02-26T15:21:28;9.20;99.90
13998;DHT22;7074;51.508;7.018;2024-02-26T15:24:00;9.40;99.90
13998;DHT22;7074;51.508;7.018;2024-02-26T15:26:30;9.10;99.90
13998;DHT22;7074;51.508;7.018;2024-02-26T15:28:57;9.20;99.90
13998;DHT22;7074;51.508;7.018;2024-02-26T15:31:24;9.20;99.90
13998;DHT22;7074;51.508;7.018;2024-02-26T15:33:58;9.20;99.90
13998;DHT22;7074;51.508;7.018;2024-02-26T15:36:27;9.30;99.90
13998;DHT22;7074;51.508;7.018;2024-02-26T15:39:04;9.20;99.90
13998;DHT22;7074;51.508;7.018;2024-02-26T15:41:33;9.10;99.90
13998;DHT22;7074;51.508;7.018;2024-02-26T15:44:00;9.20;99.90
13998;DHT22;7074;51.508;7.018;2024-02-26T15:46:39;9.20;99.90
13998;DHT22;7074;51.508;7.018;2024-02-26T15:49:07;9.30;99.90
13998;DHT22;7074;51.508;7.018;2024-02-26T15:51:35;9.30;99.90
13998;DHT22;7074;51.508;7.018;2024-02-26T15:54:03;9.40;99.90
13998;DHT22;7074;51.508;7.018;2024-02-26T15:56:31;9.20;99.90
13998;DHT22;7074;51.508;7.018;2024-02-26T15:58:58;9.30;99.90
13998;DHT22;7074;51.508;7.018;2024-02-26T16:01:26;9.30;99.90
13998;DHT22;7074;51.508;7.018;2024-02-26T16:03:53;9.20;99.90
13998;DHT22;7074;51.508;7.018;2024-02-26T16:06:25;9.10;99.90
13998;DHT22;7074;51.508;7.018;2024-02-26T16:08:56;9.10;99.90
13998;DHT22;7074;51.508;7.018;2024-02-26T16:11:27;9.20;99.90
13998;DHT22;7074;51.508;7.018;2024-02-26T16:13:58;9.10;99.90
13998;DHT22;7074;51.508;7.018;2024-02-26T16:16:31;9.20;99.90
13998;DHT22;7074;51.508;7.018;2024-02-26T16:19:06;9.20;99.90
13998;DHT22;7074;51.508;7.018;2024-02-26T16:21:37;9.20;99.90
13998;DHT22;7074;51.508;7.018;2024-02-26T16:24:08;9.10;99.90
13998;DHT22;7074;51.508;7.018;2024-02-26T16:26:38;9.10;99.90
13998;DHT22;7074;51.508;7.018;2024-02-26T16:29:05;9.20;99.90
13998;DHT22;7074;51.508;7.018;2024-02-26T16:31:32;9.20;99.90
13998;DHT22;7074;51.508;7.018;2024-02-26T16:34:00;9.10;99.90
13998;DHT22;7074;51.508;7.018;2024-02-26T16:36:27;9.10;99.90
13998;DHT22;7074;51.508;7.018;2024-02-26T16:38:54;9.10;99.90
13998;DHT22;7074;51.508;7.018;2024-02-26T16:41:21;9.20;99.90
13998;DHT22;7074;51.508;7.018;2024-02-26T16:43:50;9.00;99.90
13998;DHT22;7074;51.508;7.018;2024-02-26T16:46:18;9.10;99.90
13998;DHT22;7074;51.508;7.018;2024-02-26T16:48:48;9.00;99.90
13998;DHT22;7074;51.508;7.018;2024-02-26T16:51:38;9.10;99.90
13998;DHT22;7074;51.508;7.018;2024-02-26T16:54:06;9.10;99.90
13998;DHT22;7074;51.508;7.018;2024-02-26T16:56:33;9.00;99.90
13998;DHT22;7074;51.508;7.018;2024-02-26T16:59:02;9.00;99.90
13998;DHT22;7074;51.508;7.018;2024-02-26T17:01:29;9.00;99.90
13998;DHT22;7074;51.508;7.018;2024-02-26T17:03:57;9.10;99.90
13998;DHT22;7074;51.508;7.018;2024-02-26T17:06:24;9.00;99.90
13998;DHT22;7074;51.508;7.018;2024-02-26T17:08:51;9.10;99.90
13998;DHT22;7074;51.508;7.018;2024-02-26T17:11:19;9.00;99.90
13998;DHT22;7074;51.508;7.018;2024-02-26T17:13:46;9.10;99.90
13998;DHT22;7074;51.508;7.018;2024-02-26T17:16:15;9.10;99.90
13998;DHT22;7074;51.508;7.018;2024-02-26T17:18:48;9.10;99.90
13998;DHT22;7074;51.508;7.018;2024-02-26T17:21:16;9.10;99.90
13998;DHT22;7074;51.508;7.018;2024-02-26T17:23:44;9.10;99.90
13998;DHT22;7074;51.508;7.018;2024-02-26T17:26:17;9.10;99.90
13998;DHT22;7074;51.508;7.018;2024-02-26T17:28:44;9.10;99.90
13998;DHT22;7074;51.508;7.018;2024-02-26T17:31:12;9.10;99.90
13998;DHT22;7074;51.508;7.018;2024-02-26T17:33:41;9.10;99.90
13998;DHT22;7074;51.508;7.018;2024-02-26T17:36:11;9.10;99.90
13998;DHT22;7074;51.508;7.018;2024-02-26T17:38:38;9.00;99.90
13998;DHT22;7074;51.508;7.018;2024-02-26T17:41:07;9.00;99.90
13998;DHT22;7074;51.508;7.018;2024-02-26T17:43:35;9.00;99.90
13998;DHT22;7074;51.508;7.018;2024-02-26T17:46:02;9.10;99.90
13998;DHT22;7074;51.508;7.018;2024-02-26T17:48:30;8.90;99.90
13998;DHT22;7074;51.508;7.018;2024-02-26T17:50:58;9.00;99.90
13998;DHT22;7074;51.508;7.018;2024-02-26T17:53:25;8.90;99.90
13998;DHT22;7074;51.508;7.018;2024-02-26T17:55:55;8.90;99.90
13998;DHT22;7074;51.508;7.018;2024-02-26T17:58:37;8.90;99.90
13998;DHT22;7074;51.508;7.018;2024-02-26T18:01:07;8.90;99.90
13998;DHT22;7074;51.508;7.018;2024-02-26T18:03:35;8.80;99.90
13998;DHT22;7074;51.508;7.018;2024-02-26T18:06:06;8.80;99.90
13998;DHT22;7074;51.508;7.018;2024-02-26T18:08:34;8.90;99.90
13998;DHT22;7074;51.508;7.018;2024-02-26T18:11:06;8.80;99.90
13998;DHT22;7074;51.508;7.018;2024-02-26T18:13:38;8.60;99.90
13998;DHT22;7074;51.508;7.018;2024-02-26T18:16:10;8.70;99.90
13998;DHT22;7074;51.508;7.018;2024-02-26T18:18:38;8.70;99.90
13998;DHT22;7074;51.508;7.018;2024-02-26T18:21:07;8.80;99.90
13998;DHT22;7074;51.508;7.018;2024-02-26T18:23:34;8.80;99.90
13998;DHT22;7074;51.508;7.018;2024-02-26T18:26:08;8.80;99.90
13998;DHT22;7074;51.508;7.018;2024-02-26T18:28:35;8.70;99.90
13998;DHT22;7074;51.508;7.018;2024-02-26T18:31:02;8.70;99.90
13998;DHT22;7074;51.508;7.018;2024-02-26T18:33:30;8.70;99.90
13998;DHT22;7074;51.508;7.018;2024-02-26T18:35:57;8.70;99.90
13998;DHT22;7074;51.508;7.018;2024-02-26T18:38:26;8.70;99.90
13998;DHT22;7074;51.508;7.018;2024-02-26T18:40:54;8.70;99.90
13998;DHT22;7074;51.508;7.018;2024-02-26T18:43:21;8.70;99.90
13998;DHT22;7074;51.508;7.018;2024-02-26T18:45:48;8.80;99.90
13998;DHT22;7074;51.508;7.018;2024-02-26T18:48:16;8.80;99.90
13998;DHT22;7074;51.508;7.018;2024-02-26T18:50:43;8.80;99.90
13998;DHT22;7074;51.508;7.018;2024-02-26T18:53:12;8.90;99.90
13998;DHT22;7074;51.508;7.018;2024-02-26T18:55:41;8.80;99.90
13998;DHT22;7074;51.508;7.018;2024-02-26T18:58:08;8.90;99.90
13998;DHT22;7074;51.508;7.018;2024-02-26T19:00:35;8.80;99.90
13998;DHT22;7074;51.508;7.018;2024-02-26T19:03:03;8.80;99.90
13998;DHT22;7074;51.508;7.018;2024-02-26T19:05:31;8.70;99.90
13998;DHT22;7074;51.508;7.018;2024-02-26T19:07:58;8.70;99.90
13998;DHT22;7074;51.508;7.018;2024-02-26T19:10:27;8.80;99.90
13998;DHT22;7074;51.508;7.018;2024-02-26T19:12:56;8.80;99.90
13998;DHT22;7074;51.508;7.018;2024-02-26T19:15:23;8.70;99.90
13998;DHT22;7074;51.508;7.018;2024-02-26T19:17:51;8.80;99.90
13998;DHT22;7074;51.508;7.018;2024-02-26T19:20:18;8.80;99.90
13998;DHT22;7074;51.508;7.018;2024-02-26T19:22:46;8.80;99.90
13998;DHT22;7074;51.508;7.018;2024-02-26T19:25:14;8.60;99.90
13998;DHT22;7074;51.508;7.018;2024-02-26T19:27:42;8.60;99.90
13998;DHT22;7074;51.508;7.018;2024-02-26T19:30:11;8.70;99.90
13998;DHT22;7074;51.508;7.018;2024-02-26T19:32:39;8.70;99.90
13998;DHT22;7074;51.508;7.018;2024-02-26T19:35:06;8.70;99.90
13998;DHT22;7074;51.508;7.018;2024-02-26T19:37:50;8.80;99.90
13998;DHT22;7074;51.508;7.018;2024-02-26T19:40:18;8.80;99.90
13998;DHT22;7074;51.508;7.018;2024-02-26T19:42:48;8.60;99.90
13998;DHT22;7074;51.508;7.018;2024-02-26T19:45:17;8.50;99.90
13998;DHT22;7074;51.508;7.018;2024-02-26T19:47:44;8.50;99.90
13998;DHT22;7074;51.508;7.018;2024-02-26T19:50:13;8.50;99.90
13998;DHT22;7074;51.508;7.018;2024-02-26T19:52:40;8.50;99.90
13998;DHT22;7074;51.508;7.018;2024-02-26T19:55:07;8.50;99.90
13998;DHT22;7074;51.508;7.018;2024-02-26T19:57:37;8.50;99.90
13998;DHT22;7074;51.508;7.018;2024-02-26T20:00:06;8.60;99.90
13998;DHT22;7074;51.508;7.018;2024-02-26T20:02:41;8.50;99.90
13998;DHT22;7074;51.508;7.018;2024-02-26T20:05:09;8.40;99.90
13998;DHT22;7074;51.508;7.018;2024-02-26T20:07:36;8.40;99.90
13998;DHT22;7074;51.508;7.018;2024-02-26T20:10:04;8.70;99.90
13998;DHT22;7074;51.508;7.018;2024-02-26T20:12:32;8.60;99.90
13998;DHT22;7074;51.508;7.018;2024-02-26T20:14:59;8.60;99.90
13998;DHT22;7074;51.508;7.018;2024-02-26T20:17:26;8.70;99.90
13998;DHT22;7074;51.508;7.018;2024-02-26T20:19:55;8.70;99.90
13998;DHT22;7074;51.508;7.018;2024-02-26T20:22:23;8.70;99.90
13998;DHT22;7074;51.508;7.018;2024-02-26T20:24:50;8.70;99.90
13998;DHT22;7074;51.508;7.018;2024-02-26T20:27:18;8.60;99.90
13998;DHT22;7074;51.508;7.018;2024-02-26T20:29:46;8.50;99.90
13998;DHT22;7074;51.508;7.018;2024-02-26T20:32:14;8.50;99.90
13998;DHT22;7074;51.508;7.018;2024-02-26T20:34:41;8.50;99.90
13998;DHT22;7074;51.508;7.018;2024-02-26T20:37:09;8.60;99.90
13998;DHT22;7074;51.508;7.018;2024-02-26T20:39:37;8.60;99.90
13998;DHT22;7074;51.508;7.018;2024-02-26T20:42:04;8.60;99.90
13998;DHT22;7074;51.508;7.018;2024-02-26T20:44:33;8.60;99.90
13998;DHT22;7074;51.508;7.018;2024-02-26T20:47:00;8.60;99.90
13998;DHT22;7074;51.508;7.018;2024-02-26T20:49:27;8.60;99.90
13998;DHT22;7074;51.508;7.018;2024-02-26T20:51:55;8.60;99.90
13998;DHT22;7074;51.508;7.018;2024-02-26T20:54:27;8.60;99.90
13998;DHT22;7074;51.508;7.018;2024-02-26T20:57:03;8.50;99.90
13998;DHT22;7074;51.508;7.018;2024-02-26T20:59:37;8.40;99.90
13998;DHT22;7074;51.508;7.018;2024-02-26T21:02:09;8.50;99.90
13998;DHT22;7074;51.508;7.018;2024-02-26T21:04:36;8.40;99.90
13998;DHT22;7074;51.508;7.018;2024-02-26T21:07:07;8.20;99.90
13998;DHT22;7074;51.508;7.018;2024-02-26T21:09:36;8.10;99.90
13998;DHT22;7074;51.508;7.018;2024-02-26T21:12:03;8.10;99.90
13998;DHT22;7074;51.508;7.018;2024-02-26T21:14:36;8.10;99.90
13998;DHT22;7074;51.508;7.018;2024-02-26T21:17:04;8.10;99.90
13998;DHT22;7074;51.508;7.018;2024-02-26T21:19:31;8.20;99.90
13998;DHT22;7074;51.508;7.018;2024-02-26T21:22:01;8.00;99.90
13998;DHT22;7074;51.508;7.018;2024-02-26T21:24:29;8.20;99.90
13998;DHT22;7074;51.508;7.018;2024-02-26T21:26:58;8.10;99.90
13998;DHT22;7074;51.508;7.018;2024-02-26T21:29:25;8.20;99.90
13998;DHT22;7074;51.508;7.018;2024-02-26T21:31:52;8.20;99.90
13998;DHT22;7074;51.508;7.018;2024-02-26T21:34:20;8.20;99.90
13998;DHT22;7074;51.508;7.018;2024-02-26T21:36:47;8.30;99.90
13998;DHT22;7074;51.508;7.018;2024-02-26T21:39:14;8.20;99.90
13998;DHT22;7074;51.508;7.018;2024-02-26T21:41:47;8.10;99.90
13998;DHT22;7074;51.508;7.018;2024-02-26T21:44:17;8.20;99.90
13998;DHT22;7074;51.508;7.018;2024-02-26T21:46:44;8.20;99.90
13998;DHT22;7074;51.508;7.018;2024-02-26T21:49:12;8.20;99.90
13998;DHT22;7074;51.508;7.018;2024-02-26T21:51:44;8.20;99.90
13998;DHT22;7074;51.508;7.018;2024-02-26T21:54:11;8.20;99.90
13998;DHT22;7074;51.508;7.018;2024-02-26T21:56:39;8.20;99.90
13998;DHT22;7074;51.508;7.018;2024-02-26T21:59:06;8.10;99.90
13998;DHT22;7074;51.508;7.018;2024-02-26T22:01:35;8.10;99.90
13998;DHT22;7074;51.508;7.018;2024-02-26T22:04:03;8.10;99.90
13998;DHT22;7074;51.508;7.018;2024-02-26T22:06:30;8.00;99.90